Airfield :
LOGIN :

Register | Disclaimer

   EN    FR    IT 

 










Legend :    VFR   Marginal VFR   IFR   Intensive IFR   Very Intensive IFR
Visi :
Ceiling :
>= 8 km
>= 3000ft
5 to 8 km
1000 to 3000 ft
1500m to 5 km
500 to 1000 ft
800 to 1500m
200 to 500 ft
< 800m
< 200 ft
Symbols :   Thunderstorms  Fog  Heavy snow  Heavy precipitations  Wind > 20 kt
SIGMETs :     Misc.  Thunderstorms  Icing  Turbulence  Mountain Waves  Volcanic Ashes







- Airport Elevation : 1989 ft
- IATA code : KLV


LKKV - Karlovy Vary

CURRENT METAR :
  • 161800Z 20002KT 9999 FEW060TCU 19/11 Q1014

EXPIRED METARs :
  • 161730Z 11004KT 050V130 9999 FEW060CB 20/09 Q1014
  • 161700Z 08006KT 050V110 9999 FEW060CB 20/09 Q1014
  • 161630Z 09007KT 9999 FEW055CB 21/11 Q1014
  • 161600Z 12009KT 9999 FEW050CB 20/10 Q1014
  • 161530Z 14008KT 110V170 9999 FEW050CB 19/12 Q1014

TAF TAF LKKV
Valid from the 16 at 18:00 until the 18 at 00:00 UTC


161700Z 1618/1800 VRB02KT CAVOK
TEMPO 1618/1621 8000 SHRA SCT050TCU
PROB40
TEMPO 1618/1619 30016G26KT 4000 TSRA SCT040CB
TEMPO 1709/1718 33010G20KT 9000 -SHRA SCT030TCU
No reported NOTAMs for that airfield.



MET'MAP, your aeronautical weather chart ! - Copyright ORBIFLY December 2007 - Disclaimer

ORBIFLY MET'MAP TEAM :

Programming & Development : Alexandra Zaïnal
Concept & Development : Baudouin d'Aumeries
Co-Development & Prog : Marc-Olivier Méhu
Technical & hardware support : Manuel Goepfert

Contact : metmap@orbifly.com




SOURCES & CREDITS :

   NOAA